Time;durP1;ratioP1;P1;durP2;ratioP2;P2;SDS_P1;SDS_P2;PMS_P1;PMS_P2;Temp;Humidity;BMP_temperature;BMP_pressure;BME280_temperature;BME280_humidity;BME280_pressure;Samples;Min_cycle;Max_cycle;Signal;HPM_P1;HPM_P2
2023/07/10 00:00:58;;;;;;;25.13;12.13;;;18.40;99.90;;;;;;5136908;27;20064;-70
2023/07/10 00:03:24;;;;;;;26.67;13.30;;;18.40;99.90;;;;;;5140865;27;20104;-69
2023/07/10 00:05:49;;;;;;;21.57;12.53;;;18.40;99.90;;;;;;5134821;27;20039;-69
2023/07/10 00:08:15;;;;;;;25.43;12.43;;;18.40;99.90;;;;;;5135637;27;20047;-71
2023/07/10 00:10:41;;;;;;;22.93;11.03;;;18.40;99.90;;;;;;5116636;27;20091;-70
2023/07/10 00:13:11;;;;;;;26.17;12.80;;;18.40;99.90;;;;;;5134802;27;20039;-69
2023/07/10 00:15:37;;;;;;;28.30;13.73;;;18.50;99.90;;;;;;5150715;27;20043;-71
2023/07/10 00:18:15;;;;;;;26.60;12.35;;;18.50;99.90;;;;;;5116602;27;20035;-69
2023/07/10 00:20:42;;;;;;;24.30;12.48;;;18.40;99.90;;;;;;5134727;27;20051;-69
2023/07/10 00:23:07;;;;;;;;;;;18.40;99.90;;;;;;5135181;27;20047;-71
2023/07/10 00:25:33;;;;;;;25.67;12.70;;;18.50;99.90;;;;;;5135282;27;19920;-70
2023/07/10 00:27:59;;;;;;;22.52;12.43;;;18.50;99.90;;;;;;5151086;27;20074;-71
2023/07/10 00:30:26;;;;;;;25.67;12.10;;;18.50;99.90;;;;;;5115903;27;20035;-69
2023/07/10 00:32:53;;;;;;;26.92;12.80;;;18.50;99.90;;;;;;5116282;28;20130;-69
2023/07/10 00:35:24;;;;;;;22.92;12.57;;;18.50;99.90;;;;;;5134393;27;20090;-70
2023/07/10 00:38:01;;;;;;;22.30;12.82;;;18.50;99.90;;;;;;5116495;28;20381;-69
2023/07/10 00:40:27;;;;;;;;;;;18.40;99.90;;;;;;5151294;27;20202;-70
2023/07/10 00:43:04;;;;;;;21.40;12.73;;;18.50;99.90;;;;;;5134468;28;19926;-70
2023/07/10 00:45:30;;;;;;;;;;;18.50;99.90;;;;;;5134708;27;20125;-71
2023/07/10 00:48:03;;;;;;;27.60;13.53;;;18.50;99.90;;;;;;5116641;28;19962;-71
2023/07/10 00:50:48;;;;;;;24.17;13.73;;;18.50;99.90;;;;;;5116363;28;20658;-70
2023/07/10 00:53:35;;;;;;;24.75;14.00;;;18.40;99.90;;;;;;5116106;28;20047;-71
2023/07/10 00:56:03;;;;;;;26.15;15.02;;;18.40;99.90;;;;;;5116442;28;20047;-70
2023/07/10 00:58:39;;;;;;;33.40;17.73;;;18.30;99.90;;;;;;5134155;28;20047;-72
2023/07/10 01:01:08;;;;;;;29.08;16.33;;;18.30;99.90;;;;;;5133967;28;20051;-70
2023/07/10 01:03:36;;;;;;;28.83;17.17;;;18.30;99.90;;;;;;5133575;28;20479;-70
2023/07/10 01:06:07;;;;;;;31.63;18.05;;;18.30;99.90;;;;;;5134095;28;20053;-71
2023/07/10 01:08:33;;;;;;;32.47;18.15;;;18.30;99.90;;;;;;5115646;28;20079;-70
2023/07/10 01:10:59;;;;;;;31.07;18.00;;;18.40;99.90;;;;;;5115817;28;20410;-71
2023/07/10 01:13:25;;;;;;;31.45;19.60;;;18.40;99.90;;;;;;5134221;28;20112;-70
2023/07/10 01:15:51;;;;;;;31.17;19.40;;;18.40;99.90;;;;;;5116716;28;20051;-70
2023/07/10 01:18:19;;;;;;;40.28;21.70;;;18.40;99.90;;;;;;5115802;28;20043;-70
2023/07/10 01:20:50;;;;;;;37.78;21.50;;;18.40;99.90;;;;;;5133753;28;20051;-70
2023/07/10 01:23:18;;;;;;;37.85;20.27;;;18.40;99.90;;;;;;5134128;28;20104;-69
2023/07/10 01:25:58;;;;;;;35.85;21.27;;;18.40;99.90;;;;;;5115343;28;20046;-69
2023/07/10 01:28:24;;;;;;;39.35;21.42;;;18.50;99.90;;;;;;5133982;28;20047;-69
2023/07/10 01:30:53;;;;;;;36.13;21.90;;;18.50;99.90;;;;;;5134084;28;20050;-69
2023/07/10 01:33:27;;;;;;;39.90;22.60;;;18.40;99.90;;;;;;5099187;28;20113;-70
2023/07/10 01:35:56;;;;;;;38.65;22.05;;;18.40;99.90;;;;;;5133527;28;20482;-70
2023/07/10 01:38:30;;;;;;;40.90;23.13;;;18.40;99.90;;;;;;5133902;28;20050;-69
2023/07/10 01:40:58;;;;;;;34.55;21.35;;;18.40;99.90;;;;;;5115566;28;20138;-71
2023/07/10 01:43:24;;;;;;;35.72;21.85;;;18.40;99.90;;;;;;5133674;28;20135;-75
2023/07/10 01:45:50;;;;;;;41.47;22.80;;;18.40;99.90;;;;;;5134466;28;20130;-70
2023/07/10 01:48:17;;;;;;;35.10;21.97;;;18.50;99.90;;;;;;5115745;28;20051;-72
2023/07/10 01:50:43;;;;;;;37.25;21.25;;;18.40;99.90;;;;;;5133822;28;20047;-70
2023/07/10 01:53:10;;;;;;;37.42;22.10;;;18.30;99.90;;;;;;5133563;28;20047;-70
2023/07/10 01:55:45;;;;;;;36.45;22.02;;;18.30;99.90;;;;;;5133800;28;20043;-70
2023/07/10 01:58:12;;;;;;;34.50;20.52;;;18.30;99.90;;;;;;5101172;27;20051;-69
2023/07/10 02:00:40;;;;;;;35.50;21.10;;;18.30;99.90;;;;;;5102022;27;20083;-69
2023/07/10 02:03:06;;;;;;;32.40;20.02;;;18.30;99.90;;;;;;5119610;27;20126;-70
2023/07/10 02:05:32;;;;;;;34.20;20.52;;;18.20;99.90;;;;;;5137307;27;20115;-70
2023/07/10 02:07:58;;;;;;;34.20;20.45;;;18.30;99.90;;;;;;5137731;27;20501;-71
2023/07/10 02:10:24;;;;;;;33.40;21.63;;;18.30;99.90;;;;;;5118887;27;20122;-69
2023/07/10 02:12:50;;;;;;;32.85;19.52;;;18.30;99.90;;;;;;5118795;27;20051;-70
2023/07/10 02:15:15;;;;;;;32.30;20.93;;;18.20;99.90;;;;;;5118778;27;20091;-70
2023/07/10 02:17:41;;;;;;;30.67;19.07;;;18.20;99.90;;;;;;5136875;27;20398;-70
2023/07/10 02:20:07;;;;;;;32.50;18.63;;;18.20;99.90;;;;;;5102581;27;20080;-70
2023/07/10 02:22:33;;;;;;;33.05;19.73;;;18.20;99.90;;;;;;5118531;27;20505;-70
2023/07/10 02:24:58;;;;;;;34.07;20.07;;;18.20;99.90;;;;;;5136886;27;20047;-69
2023/07/10 02:27:24;;;;;;;35.27;19.70;;;18.20;99.90;;;;;;5101953;27;20127;-69
2023/07/10 02:29:50;;;;;;;39.83;21.07;;;18.20;99.90;;;;;;5101528;27;20046;-70
2023/07/10 02:32:16;;;;;;;38.73;20.67;;;18.20;99.90;;;;;;5101341;27;20035;-70
2023/07/10 02:34:41;;;;;;;31.47;18.70;;;18.10;99.90;;;;;;5137084;27;20047;-71
2023/07/10 02:37:07;;;;;;;32.60;18.70;;;18.10;99.90;;;;;;5152050;27;20127;-69
2023/07/10 02:39:33;;;;;;;29.30;17.63;;;18.00;99.90;;;;;;5118191;27;20074;-69
2023/07/10 02:41:58;;;;;;;32.53;17.10;;;18.00;99.90;;;;;;5118429;27;20059;-70
2023/07/10 02:44:24;;;;;;;25.90;17.57;;;18.00;99.90;;;;;;5136229;27;20472;-72
2023/07/10 02:46:50;;;;;;;30.23;17.67;;;17.90;99.90;;;;;;5136285;27;20058;-70
2023/07/10 02:49:15;;;;;;;27.07;17.37;;;17.90;99.90;;;;;;5136301;27;20556;-70
2023/07/10 02:51:41;;;;;;;29.43;18.43;;;17.90;99.90;;;;;;5135072;27;20035;-70
2023/07/10 02:54:12;;;;;;;31.63;18.97;;;17.90;99.90;;;;;;5100857;27;20109;-70
2023/07/10 02:56:37;;;;;;;34.75;18.70;;;17.90;99.90;;;;;;5136601;27;20043;-69
2023/07/10 02:59:03;;;;;;;30.17;18.67;;;17.90;99.90;;;;;;5118367;27;20111;-70
2023/07/10 03:01:29;;;;;;;33.40;17.57;;;17.90;99.90;;;;;;5152055;27;20043;-69
2023/07/10 03:03:55;;;;;;;28.10;17.97;;;17.90;99.90;;;;;;5135941;27;20051;-69
2023/07/10 03:06:23;;;;;;;27.90;17.23;;;17.80;99.90;;;;;;5117709;27;20047;-70
2023/07/10 03:08:49;;;;;;;31.45;17.90;;;17.90;99.90;;;;;;5117195;27;20074;-69
2023/07/10 03:11:16;;;;;;;37.23;18.53;;;17.80;99.90;;;;;;5152351;27;20047;-70
2023/07/10 03:13:42;;;;;;;30.75;16.95;;;17.80;99.90;;;;;;5118294;27;20316;-70
2023/07/10 03:16:10;;;;;;;25.43;16.70;;;17.80;99.90;;;;;;5117457;27;20047;-70
2023/07/10 03:18:37;;;;;;;31.17;17.30;;;17.80;99.90;;;;;;5135352;27;20082;-74
2023/07/10 03:21:04;;;;;;;28.40;16.55;;;17.80;99.90;;;;;;5117423;27;20490;-70
2023/07/10 03:23:29;;;;;;;31.95;17.10;;;17.80;99.90;;;;;;5117685;27;20043;-70
2023/07/10 03:25:55;;;;;;;28.20;17.20;;;17.80;99.90;;;;;;5117202;27;20494;-69
2023/07/10 03:28:21;;;;;;;28.73;17.13;;;17.80;99.90;;;;;;5135527;27;20043;-71
2023/07/10 03:30:47;;;;;;;27.05;17.02;;;17.80;99.90;;;;;;5116650;27;20142;-70
2023/07/10 03:33:15;;;;;;;29.90;17.87;;;17.80;99.90;;;;;;5116672;27;20118;-72
2023/07/10 03:35:41;;;;;;;30.40;18.35;;;17.80;99.90;;;;;;5117181;27;20462;-70
2023/07/10 03:38:07;;;;;;;33.38;18.02;;;17.80;99.90;;;;;;5099560;27;20142;-69
2023/07/10 03:40:33;;;;;;;28.15;17.42;;;17.80;99.90;;;;;;5135799;27;20100;-69
2023/07/10 03:42:59;;;;;;;28.90;17.33;;;17.80;99.90;;;;;;5116720;27;20039;-70
2023/07/10 03:45:24;;;;;;;26.27;16.70;;;17.90;99.90;;;;;;5117034;27;20403;-72
2023/07/10 03:47:50;;;;;;;24.80;15.47;;;17.80;99.90;;;;;;5117105;27;20498;-71
2023/07/10 03:50:17;;;;;;;25.07;15.47;;;17.80;99.90;;;;;;5099948;27;20043;-70
2023/07/10 03:52:43;;;;;;;19.40;12.80;;;17.80;99.90;;;;;;5134543;27;20121;-70
2023/07/10 03:55:08;;;;;;;18.47;11.50;;;17.70;99.90;;;;;;5116872;27;20089;-70
2023/07/10 03:57:34;;;;;;;15.03;9.30;;;17.70;99.90;;;;;;5135866;27;20043;-70
2023/07/10 04:00:00;;;;;;;17.90;8.47;;;17.60;99.90;;;;;;5135421;27;20070;-70
2023/07/10 04:02:25;;;;;;;15.37;8.83;;;17.60;99.90;;;;;;5116700;27;20043;-71
2023/07/10 04:04:51;;;;;;;14.20;7.93;;;17.60;99.90;;;;;;5116845;27;20039;-71
2023/07/10 04:07:17;;;;;;;12.70;7.27;;;17.50;99.90;;;;;;5099476;27;20050;-69
2023/07/10 04:09:43;;;;;;;13.02;7.22;;;17.50;99.90;;;;;;5116468;27;20548;-70
2023/07/10 04:12:09;;;;;;;10.57;6.60;;;17.50;99.90;;;;;;5117281;27;20085;-69
2023/07/10 04:14:37;;;;;;;13.13;6.90;;;17.40;99.90;;;;;;5134680;27;20137;-70
2023/07/10 04:17:06;;;;;;;11.38;6.85;;;17.40;99.90;;;;;;5135131;27;20078;-69
2023/07/10 04:19:32;;;;;;;13.00;7.28;;;17.40;99.90;;;;;;5115751;28;20418;-70
2023/07/10 04:21:58;;;;;;;13.47;6.90;;;17.40;99.90;;;;;;5134544;27;20060;-70
2023/07/10 04:24:23;;;;;;;16.50;7.50;;;17.40;99.90;;;;;;5116250;27;20129;-70
2023/07/10 04:26:49;;;;;;;11.40;6.50;;;17.40;99.90;;;;;;5134404;27;20116;-71
2023/07/10 04:29:18;;;;;;;12.17;7.27;;;17.40;99.90;;;;;;5116215;28;20130;-70
2023/07/10 04:31:43;;;;;;;13.57;7.18;;;17.50;99.90;;;;;;5135120;27;20425;-69
2023/07/10 04:34:09;;;;;;;11.80;7.37;;;17.60;99.90;;;;;;5116065;28;20104;-69
2023/07/10 04:36:35;;;;;;;16.73;7.33;;;17.60;99.90;;;;;;5133951;27;20051;-70
2023/07/10 04:39:00;;;;;;;12.43;6.80;;;17.70;99.90;;;;;;5116345;27;20104;-69
2023/07/10 04:41:26;;;;;;;12.83;6.90;;;17.80;99.90;;;;;;5134298;27;20047;-70
2023/07/10 04:43:52;;;;;;;11.90;6.53;;;17.80;99.90;;;;;;5134227;28;20040;-70
2023/07/10 04:46:19;;;;;;;12.77;6.07;;;17.90;99.90;;;;;;5133889;28;20501;-69
2023/07/10 04:48:46;;;;;;;14.30;5.57;;;17.90;99.90;;;;;;5098763;28;20051;-70
2023/07/10 04:51:13;;;;;;;11.35;5.78;;;17.90;99.90;;;;;;5133725;28;20490;-70
2023/07/10 04:53:38;;;;;;;9.70;5.15;;;17.90;99.90;;;;;;5134126;28;20051;-68
2023/07/10 04:56:06;;;;;;;10.77;5.50;;;18.00;99.90;;;;;;5133767;28;20054;-70
2023/07/10 04:58:52;;;;;;;9.40;4.70;;;18.00;99.90;;;;;;5133854;28;20495;-69
2023/07/10 05:01:22;;;;;;;9.20;4.72;;;18.00;99.90;;;;;;5116378;28;20122;-69
2023/07/10 05:03:48;;;;;;;7.75;4.20;;;18.00;99.90;;;;;;5116449;28;20176;-69
2023/07/10 05:06:15;;;;;;;5.87;3.40;;;18.00;99.90;;;;;;5115479;28;20047;-68
2023/07/10 05:08:41;;;;;;;10.70;3.40;;;18.00;99.90;;;;;;5115812;28;20307;-70
2023/07/10 05:11:07;;;;;;;9.80;3.00;;;18.00;99.90;;;;;;5133858;28;20035;-69
2023/07/10 05:13:32;;;;;;;8.43;2.87;;;18.00;99.90;;;;;;5133933;28;20043;-69
2023/07/10 05:15:59;;;;;;;5.20;2.50;;;18.00;99.90;;;;;;5116158;28;20047;-70
2023/07/10 05:18:26;;;;;;;6.32;2.83;;;18.00;99.90;;;;;;5150201;27;20450;-71
2023/07/10 05:20:52;;;;;;;8.55;3.17;;;18.00;99.90;;;;;;5133461;28;20491;-73
2023/07/10 05:23:18;;;;;;;8.25;3.15;;;18.00;99.90;;;;;;5133756;28;20085;-69
2023/07/10 05:26:04;;;;;;;5.60;2.80;;;18.00;99.90;;;;;;5134519;28;20367;-70
2023/07/10 05:28:30;;;;;;;8.80;3.58;;;18.10;99.90;;;;;;5115658;28;20047;-69
2023/07/10 05:31:00;;;;;;;10.03;3.27;;;18.10;99.90;;;;;;5134247;27;20039;-70
2023/07/10 05:33:26;;;;;;;11.10;3.90;;;18.20;99.90;;;;;;5138274;27;20662;-69
2023/07/10 05:35:55;;;;;;;6.97;3.38;;;18.20;99.90;;;;;;5137214;27;20122;-71
2023/07/10 05:38:26;;;;;;;8.25;3.67;;;18.20;99.90;;;;;;5137804;27;20051;-70
2023/07/10 05:40:52;;;;;;;7.88;3.30;;;18.30;99.90;;;;;;5119538;27;20051;-71
2023/07/10 05:43:19;;;;;;;9.67;3.43;;;18.30;99.90;;;;;;5137987;27;20046;-69
2023/07/10 05:45:45;;;;;;;7.95;3.15;;;18.40;99.90;;;;;;5119288;27;20315;-69
2023/07/10 05:48:11;;;;;;;6.93;3.20;;;18.40;99.90;;;;;;5137728;27;20128;-69
2023/07/10 05:50:37;;;;;;;6.63;2.40;;;18.40;99.90;;;;;;5137364;27;20130;-69
2023/07/10 05:53:03;;;;;;;6.43;2.47;;;18.50;99.90;;;;;;5137710;27;20039;-68
2023/07/10 05:55:28;;;;;;;6.43;2.30;;;18.60;99.90;;;;;;5119018;27;20055;-70
2023/07/10 05:57:54;;;;;;;6.70;2.47;;;18.70;99.90;;;;;;5137295;27;20090;-68
2023/07/10 06:00:20;;;;;;;6.13;2.30;;;18.70;99.90;;;;;;5119407;27;20043;-71
2023/07/10 06:02:46;;;;;;;7.37;2.43;;;18.60;99.90;;;;;;5137143;27;20518;-68
2023/07/10 06:05:11;;;;;;;10.57;2.67;;;18.60;99.90;;;;;;5118692;27;20039;-69
2023/07/10 06:07:37;;;;;;;8.10;2.60;;;18.60;99.90;;;;;;5119030;27;20046;-68
2023/07/10 06:10:03;;;;;;;7.33;2.23;;;18.60;99.90;;;;;;5101216;27;20495;-68
2023/07/10 06:12:29;;;;;;;6.38;2.42;;;18.60;99.90;;;;;;5101501;27;20051;-69
2023/07/10 06:14:55;;;;;;;6.13;1.77;;;18.60;99.90;;;;;;5136939;27;20130;-68
2023/07/10 06:17:20;;;;;;;4.93;1.40;;;18.60;99.90;;;;;;5102483;27;20078;-69
2023/07/10 06:19:46;;;;;;;8.17;1.70;;;18.60;99.90;;;;;;5136772;27;20526;-69
2023/07/10 06:22:12;;;;;;;5.77;1.30;;;18.70;99.90;;;;;;5136580;27;20043;-68
2023/07/10 06:24:39;;;;;;;4.97;1.38;;;18.70;99.90;;;;;;5136739;27;20047;-69
2023/07/10 06:27:06;;;;;;;8.70;1.63;;;18.70;99.90;;;;;;5118874;27;20046;-68
2023/07/10 06:29:35;;;;;;;4.25;1.48;;;18.80;99.90;;;;;;5118220;27;20130;-69
2023/07/10 06:32:01;;;;;;;7.88;1.67;;;18.80;99.90;;;;;;5136426;27;20042;-69
2023/07/10 06:34:28;;;;;;;8.67;1.67;;;19.00;99.90;;;;;;5118190;27;20047;-68
2023/07/10 06:36:54;;;;;;;7.93;1.20;;;19.00;99.90;;;;;;5114838;28;20055;-68
2023/07/10 06:39:20;;;;;;;7.47;1.33;;;19.00;99.90;;;;;;5114563;28;20051;-69
2023/07/10 06:41:45;;;;;;;6.40;1.20;;;19.10;99.90;;;;;;5115878;28;20079;-68
2023/07/10 06:44:11;;;;;;;5.13;1.47;;;19.10;99.90;;;;;;5114151;28;20047;-69
2023/07/10 06:46:37;;;;;;;6.03;1.23;;;19.30;99.90;;;;;;5116536;28;20156;-68
2023/07/10 06:49:02;;;;;;;7.07;1.33;;;19.40;99.90;;;;;;5115653;28;20050;-70
2023/07/10 06:51:28;;;;;;;7.60;1.20;;;19.40;99.90;;;;;;5114766;28;20059;-70
2023/07/10 06:53:54;;;;;;;5.60;1.00;;;19.40;99.90;;;;;;5115524;28;20344;-69
2023/07/10 06:56:20;;;;;;;4.23;0.90;;;19.40;99.90;;;;;;5114642;28;20289;-68
2023/07/10 06:58:46;;;;;;;8.80;1.27;;;19.40;99.90;;;;;;5115540;27;20130;-68
2023/07/10 07:01:12;;;;;;;7.23;1.30;;;19.40;99.90;;;;;;5097497;28;20127;-68
2023/07/10 07:03:40;;;;;;;9.87;1.50;;;19.50;99.90;;;;;;5113864;28;20109;-67
2023/07/10 07:06:07;;;;;;;10.52;1.45;;;19.60;99.90;;;;;;5115217;28;20053;-69
2023/07/10 07:08:34;;;;;;;9.95;1.40;;;19.70;99.90;;;;;;5115381;28;20375;-68
2023/07/10 07:10:59;;;;;;;9.38;1.50;;;19.70;99.90;;;;;;5113916;28;20048;-67
2023/07/10 07:13:25;;;;;;;5.10;1.17;;;19.70;99.90;;;;;;5115111;28;20058;-67
2023/07/10 07:15:53;;;;;;;5.40;1.40;;;19.80;99.90;;;;;;5115271;28;20047;-68
2023/07/10 07:18:19;;;;;;;6.88;1.77;;;19.80;99.90;;;;;;5113769;28;20052;-68
2023/07/10 07:20:46;;;;;;;6.90;1.92;;;19.80;99.90;;;;;;5114283;28;20047;-67
2023/07/10 07:23:11;;;;;;;6.93;1.42;;;19.90;99.90;;;;;;5113631;28;20047;-69
2023/07/10 07:25:40;;;;;;;11.23;2.13;;;20.00;99.90;;;;;;5113688;28;20050;-68
2023/07/10 07:28:06;;;;;;;7.78;1.70;;;20.10;99.90;;;;;;5114953;28;20103;-68
2023/07/10 07:30:32;;;;;;;9.85;2.03;;;20.20;99.90;;;;;;5113601;28;20349;-68
2023/07/10 07:32:58;;;;;;;6.87;1.80;;;20.20;99.90;;;;;;5113963;28;20134;-68
2023/07/10 07:35:25;;;;;;;9.38;1.90;;;20.30;99.90;;;;;;5114631;28;20431;-68
2023/07/10 07:37:50;;;;;;;6.43;1.58;;;20.30;99.90;;;;;;5113146;28;20059;-68
2023/07/10 07:40:16;;;;;;;10.20;2.23;;;20.40;99.90;;;;;;5114669;28;20058;-68
2023/07/10 07:42:46;;;;;;;6.40;1.77;;;20.50;99.90;;;;;;5114713;28;20051;-68
2023/07/10 07:45:14;;;;;;;8.75;1.90;;;20.50;99.90;;;;;;5113871;28;20083;-69
2023/07/10 07:47:43;;;;;;;7.22;2.00;;;20.60;99.90;;;;;;5114471;28;20047;-68
2023/07/10 07:50:09;;;;;;;7.32;1.92;;;20.70;99.90;;;;;;5114401;28;20044;-68
2023/07/10 07:52:35;;;;;;;9.50;1.98;;;20.70;99.90;;;;;;5112623;28;20054;-68
2023/07/10 07:55:02;;;;;;;7.87;2.00;;;20.80;99.90;;;;;;5095608;28;20137;-68
2023/07/10 07:57:28;;;;;;;;;;;20.90;99.90;;;;;;5115098;28;20491;-68
2023/07/10 07:59:54;;;;;;;10.23;2.03;;;20.90;99.90;;;;;;5114431;28;19923;-69
2023/07/10 08:02:20;;;;;;;7.13;1.57;;;21.00;99.90;;;;;;5114572;28;20043;-69
2023/07/10 08:04:45;;;;;;;9.97;2.40;;;21.10;99.90;;;;;;5115039;28;20050;-68
2023/07/10 08:07:11;;;;;;;7.03;1.90;;;21.10;99.90;;;;;;5114652;28;20780;-69
2023/07/10 08:09:37;;;;;;;7.03;1.67;;;21.10;99.90;;;;;;5114193;28;20048;-68
2023/07/10 08:12:06;;;;;;;6.50;1.53;;;21.00;99.90;;;;;;5114091;28;20043;-68
2023/07/10 08:14:32;;;;;;;7.43;1.70;;;21.20;99.90;;;;;;5114303;28;20043;-69
2023/07/10 08:16:58;;;;;;;8.43;1.90;;;21.50;99.90;;;;;;5096313;28;20059;-68
2023/07/10 08:19:23;;;;;;;8.27;2.23;;;21.40;99.90;;;;;;5113741;28;20058;-69
2023/07/10 08:21:50;;;;;;;8.40;1.30;;;21.70;99.90;;;;;;5114672;28;20040;-67
2023/07/10 08:24:15;;;;;;;8.57;1.67;;;21.90;99.90;;;;;;5113911;28;20047;-69
2023/07/10 08:26:41;;;;;;;10.47;1.60;;;22.00;99.90;;;;;;5114053;28;20066;-69
2023/07/10 08:29:27;;;;;;;12.33;1.40;;;22.00;99.90;;;;;;5096132;28;20047;-69
2023/07/10 08:31:58;;;;;;;6.15;1.40;;;22.10;99.90;;;;;;5113836;28;20047;-69
2023/07/10 08:34:25;;;;;;;10.30;1.45;;;22.10;99.90;;;;;;5113561;28;20571;-70
2023/07/10 08:36:52;;;;;;;7.88;1.10;;;22.20;99.90;;;;;;5112541;28;20059;-68
2023/07/10 08:39:18;;;;;;;7.25;1.17;;;22.20;99.90;;;;;;5095805;28;20456;-69
2023/07/10 08:41:52;;;;;;;9.82;1.33;;;22.30;99.90;;;;;;5113817;28;20086;-69
2023/07/10 08:44:18;;;;;;;9.13;1.40;;;22.30;99.90;;;;;;5095827;28;20043;-69
2023/07/10 08:46:46;;;;;;;5.85;1.27;;;22.40;99.90;;;;;;5112793;28;20083;-69
2023/07/10 08:49:28;;;;;;;7.00;1.35;;;22.40;99.90;;;;;;5113755;28;20052;-69
2023/07/10 08:52:38;;;;;;;7.75;1.70;;;22.50;99.90;;;;;;5114202;28;20376;-69
2023/07/10 08:55:13;;;;;;;6.38;1.33;;;22.40;99.90;;;;;;5097617;28;20067;-69
2023/07/10 08:57:47;;;;;;;5.68;1.27;;;22.40;99.90;;;;;;5114185;28;20048;-69
2023/07/10 09:00:15;;;;;;;8.18;1.50;;;22.50;99.90;;;;;;5114259;28;20364;-69
2023/07/10 09:02:51;;;;;;;7.35;1.58;;;22.60;99.90;;;;;;5095498;28;20104;-68
2023/07/10 09:05:29;;;;;;;7.95;1.35;;;22.70;99.90;;;;;;5112793;28;20120;-68
2023/07/10 09:08:01;;;;;;;11.32;1.60;;;22.70;99.90;;;;;;5099949;28;20465;-70
2023/07/10 09:10:39;;;;;;;6.45;1.35;;;22.80;99.90;;;;;;5116885;28;20108;-68
2023/07/10 09:13:08;;;;;;;6.70;1.40;;;22.90;99.90;;;;;;5118353;28;20171;-69
2023/07/10 09:15:39;;;;;;;8.35;1.27;;;22.90;99.90;;;;;;5117311;27;20043;-68
2023/07/10 09:18:17;;;;;;;11.35;1.40;;;23.00;99.90;;;;;;5116907;28;20046;-70
2023/07/10 09:20:43;;;;;;;9.38;1.20;;;23.00;99.90;;;;;;5118184;28;20422;-69
2023/07/10 09:23:45;;;;;;;;;;;23.10;99.90;;;;;;5117797;28;20104;-69
2023/07/10 09:26:17;;;;;;;8.32;1.30;;;23.10;99.90;;;;;;5074229;28;19920;-69
2023/07/10 09:28:59;;;;;;;8.65;1.48;;;23.10;99.90;;;;;;5110101;28;20134;-71
2023/07/10 09:31:45;;;;;;;6.72;1.25;;;23.00;99.90;;;;;;5117278;28;20051;-69
2023/07/10 09:34:12;;;;;;;6.35;1.27;;;23.10;99.90;;;;;;5117330;28;20043;-69
2023/07/10 09:36:38;;;;;;;8.90;1.40;;;23.10;99.90;;;;;;5118036;27;20082;-69
2023/07/10 09:39:04;;;;;;;5.57;0.82;;;;;;;;;;5120083;27;20051;-68
2023/07/10 09:41:30;;;;;;;10.05;1.10;;;;;;;;;;5137315;27;20497;-69
2023/07/10 09:43:58;;;;;;;10.95;1.30;;;;;;;;;;5120381;27;20095;-70
2023/07/10 09:46:26;;;;;;;8.20;1.33;;;;;;;;;;5138098;27;20047;-69
2023/07/10 09:48:53;;;;;;;6.80;1.25;;;;;;;;;;5119512;27;20133;-68
2023/07/10 09:51:19;;;;;;;7.90;1.27;;;;;;;;;;5118855;27;20126;-68
2023/07/10 09:53:49;;;;;;;10.82;1.40;;;;;;;;;;5119444;27;20051;-68
2023/07/10 09:56:22;;;;;;;12.65;1.40;;;;;;;;;;5138331;27;20042;-69
2023/07/10 09:58:48;;;;;;;7.15;1.50;;;;;;;;;;5137609;27;20123;-67
2023/07/10 10:01:14;;;;;;;11.32;1.60;;;;;;;;;;5119461;27;20439;-70
2023/07/10 10:03:44;;;;;;;10.07;1.40;;;;;;;;;;5102067;27;20083;-69
2023/07/10 10:06:23;;;;;;;10.63;1.77;;;;;;;;;;5137077;27;20046;-69
2023/07/10 10:08:53;;;;;;;7.90;1.60;;;;;;;;;;5137048;27;20061;-69
2023/07/10 10:11:31;;;;;;;7.15;1.23;;;;;;;;;;5136999;27;20055;-69
2023/07/10 10:14:03;;;;;;;9.65;1.70;;;;;;;;;;5137412;27;20047;-69
2023/07/10 10:16:52;;;;;;;13.45;1.70;;;;;;;;;;5136883;27;20051;-69
2023/07/10 10:19:24;;;;;;;10.55;1.77;;;;;;;;;;5136319;27;20066;-70
2023/07/10 10:21:50;;;;;;;13.20;2.15;;;23.90;99.90;;;;;;5136850;27;20216;-68
2023/07/10 10:24:16;;;;;;;7.83;1.87;;;23.90;99.90;;;;;;5136818;27;20135;-69
2023/07/10 10:26:51;;;;;;;10.23;1.80;;;24.00;99.90;;;;;;5137254;27;20280;-69
2023/07/10 10:29:33;;;;;;;8.93;1.50;;;24.10;99.90;;;;;;5137015;27;20552;-69
2023/07/10 10:32:08;;;;;;;11.85;1.90;;;23.80;99.90;;;;;;5102170;27;20047;-68
2023/07/10 10:34:45;;;;;;;8.55;1.70;;;23.70;99.90;;;;;;5136623;27;20047;-69
2023/07/10 10:37:58;;;;;;;8.63;2.15;;;23.60;99.90;;;;;;5118161;27;20062;-69
2023/07/10 10:40:47;;;;;;;10.32;1.70;;;23.60;99.90;;;;;;5116477;27;20447;-68
2023/07/10 10:43:24;;;;;;;12.90;7.25;;;23.70;99.90;;;;;;5137036;27;20110;-69
2023/07/10 10:45:57;;;;;;;10.82;2.60;;;24.00;99.90;;;;;;5118067;27;20043;-67
2023/07/10 10:48:23;;;;;;;9.48;1.80;;;24.20;99.90;;;;;;5136711;27;20074;-70
2023/07/10 10:50:49;;;;;;;10.20;2.20;;;24.20;99.90;;;;;;5118740;27;20043;-68
2023/07/10 10:53:43;;;;;;;9.53;1.80;;;24.30;99.90;;;;;;5137033;27;20043;-69
2023/07/10 10:56:34;;;;;;;10.10;2.15;;;24.40;99.90;;;;;;5136211;27;20082;-71
2023/07/10 10:59:18;;;;;;;5.80;1.70;;;24.50;99.90;;;;;;5137492;27;20054;-69
2023/07/10 11:01:56;;;;;;;12.02;2.03;;;24.60;99.90;;;;;;5136117;27;20171;-70
2023/07/10 11:04:35;;;;;;;7.18;1.60;;;24.50;99.90;;;;;;5136518;27;20051;-80
2023/07/10 11:07:14;;;;;;;8.98;2.17;;;24.30;99.90;;;;;;5135239;27;20090;-68
2023/07/10 11:09:52;;;;;;;7.07;1.42;;;24.30;99.90;;;;;;5135884;27;20082;-73
2023/07/10 11:12:24;;;;;;;8.68;1.80;;;24.40;99.90;;;;;;5118443;27;20118;-67
2023/07/10 11:14:55;;;;;;;8.68;1.27;;;;;;;;;;5117520;27;20153;-69
2023/07/10 11:17:22;;;;;;;7.60;1.15;;;;;;;;;;5136367;27;20046;-68
2023/07/10 11:19:49;;;;;;;;;;;;;;;;;;5136660;27;20047;-68
2023/07/10 11:22:18;;;;;;;7.18;1.15;;;;;;;;;;5117528;27;19926;-68
2023/07/10 11:24:48;;;;;;;6.50;0.98;;;;;;;;;;5100247;27;20055;-68
2023/07/10 11:27:20;;;;;;;10.07;1.20;;;;;;;;;;5135961;27;20039;-67
2023/07/10 11:29:53;;;;;;;15.50;1.50;;;;;;;;;;5117058;27;20051;-68
2023/07/10 11:32:20;;;;;;;12.23;1.50;;;;;;;;;;5135422;27;20039;-68
2023/07/10 11:34:50;;;;;;;8.63;1.20;;;;;;;;;;5100077;27;20104;-70
2023/07/10 11:37:35;;;;;;;8.63;1.33;;;;;;;;;;5135519;27;20058;-71
2023/07/10 11:40:20;;;;;;;11.10;1.38;;;;;;;;;;5117782;27;20047;-70
2023/07/10 11:42:46;;;;;;;8.68;1.25;;;;;;;;;;5135153;27;20043;-69
2023/07/10 11:45:13;;;;;;;12.38;1.50;;;;;;;;;;5116574;27;20050;-69
2023/07/10 11:47:43;;;;;;;9.23;1.50;;;;;;;;;;5117838;27;20043;-71
2023/07/10 11:50:17;;;;;;;11.93;1.20;;;;;;;;;;5135740;27;20049;-68
2023/07/10 11:52:43;;;;;;;8.32;1.10;;;;;;;;;;5099423;27;20062;-70
2023/07/10 11:55:13;;;;;;;9.68;1.30;;;;;;;;;;5135131;27;20084;-69
2023/07/10 11:57:39;;;;;;;13.98;1.25;;;;;;;;;;5134523;27;20138;-70
2023/07/10 12:00:14;;;;;;;5.85;1.25;;;;;;;;;;5117325;27;20457;-69
2023/07/10 12:02:45;;;;;;;8.93;1.10;;;;;;;;;;5135438;27;20133;-69
2023/07/10 12:05:11;;;;;;;9.20;1.35;;;;;;;;;;5135259;27;20051;-69
2023/07/10 12:07:37;;;;;;;8.25;1.30;;;;;;;;;;5135551;27;20047;-69
2023/07/10 12:10:10;;;;;;;7.45;1.45;;;;;;;;;;5134689;27;20045;-69
2023/07/10 12:12:36;;;;;;;6.70;1.10;;;;;;;;;;5135143;27;20039;-69
2023/07/10 12:15:03;;;;;;;9.88;1.35;;;;;;;;;;5134588;27;20083;-69
2023/07/10 12:17:31;;;;;;;9.32;1.48;;;;;;;;;;5099759;27;20394;-69
2023/07/10 12:19:59;;;;;;;12.15;1.33;;;;;;;;;;5116376;27;20039;-69
2023/07/10 12:22:34;;;;;;;9.45;1.50;;;25.30;99.90;;;;;;5116105;27;20069;-66
2023/07/10 12:25:00;;;;;;;5.05;0.90;;;25.40;99.90;;;;;;5116535;27;20047;-69
2023/07/10 12:27:31;;;;;;;;;;;25.30;99.90;;;;;;5116660;27;20055;-70
2023/07/10 12:29:57;;;;;;;8.25;1.25;;;25.20;99.90;;;;;;5134420;27;19919;-70
2023/07/10 12:32:25;;;;;;;5.80;1.17;;;25.00;99.90;;;;;;5151278;27;20047;-68
2023/07/10 12:34:54;;;;;;;8.50;0.98;;;24.90;99.90;;;;;;5135059;27;20383;-68
2023/07/10 12:37:20;;;;;;;6.25;1.02;;;24.90;99.90;;;;;;5150965;27;20135;-69
2023/07/10 12:39:50;;;;;;;9.25;1.00;;;24.90;99.90;;;;;;5151162;27;20123;-69
2023/07/10 12:42:32;;;;;;;6.43;0.80;;;25.10;99.90;;;;;;5098741;27;20047;-68
2023/07/10 12:45:04;;;;;;;3.83;0.50;;;25.10;99.90;;;;;;5134269;27;20055;-68
2023/07/10 12:47:34;;;;;;;6.28;0.70;;;25.20;99.90;;;;;;5134346;28;20051;-69
2023/07/10 12:50:00;;;;;;;6.60;0.77;;;25.10;99.90;;;;;;5115771;28;20035;-68
2023/07/10 12:52:34;;;;;;;6.00;0.70;;;25.20;99.90;;;;;;5134065;28;20125;-69
2023/07/10 12:55:04;;;;;;;6.43;0.80;;;25.30;99.90;;;;;;5098828;28;20066;-70
2023/07/10 12:57:32;;;;;;;7.07;0.80;;;;;;;;;;5134447;28;20043;-69
2023/07/10 13:00:06;;;;;;;7.57;0.77;;;;;;;;;;5134038;28;20062;-70
2023/07/10 13:02:38;;;;;;;7.22;0.85;;;;;;;;;;5134173;28;20049;-70
2023/07/10 13:05:08;;;;;;;7.50;0.70;;;;;;;;;;5134035;28;20096;-68